Time;durP1;ratioP1;P1;durP2;ratioP2;P2;SDS_P1;SDS_P2;PMS_P1;PMS_P2;Temp;Humidity;BMP_temperature;BMP_pressure;BME280_temperature;BME280_humidity;BME280_pressure;Samples;Min_cycle;Max_cycle;Signal;HPM_P1;HPM_P2
2021/05/28 00:01:56;;;;;;;12.00;4.57;;;6.70;96.90;;;;;;5081038;28;20350;-68
2021/05/28 00:04:22;;;;;;;11.57;4.85;;;6.70;96.90;;;;;;5082679;28;20036;-68
2021/05/28 00:06:48;;;;;;;3.08;2.13;;;6.70;96.90;;;;;;5080470;28;20122;-68
2021/05/28 00:09:13;;;;;;;11.50;2.67;;;6.70;97.10;;;;;;5079258;28;20166;-68
2021/05/28 00:11:40;;;;;;;8.80;2.50;;;6.60;96.70;;;;;;5080704;28;20048;-68
2021/05/28 00:14:06;;;;;;;9.18;3.70;;;6.50;96.70;;;;;;5079944;28;20032;-68
2021/05/28 00:16:31;;;;;;;9.48;4.85;;;6.40;96.80;;;;;;5078675;28;20028;-67
2021/05/28 00:18:57;;;;;;;10.75;4.68;;;6.40;96.90;;;;;;5079326;28;20036;-68
2021/05/28 00:21:22;;;;;;;10.93;5.38;;;6.30;97.00;;;;;;5078772;28;20028;-68
2021/05/28 00:23:48;;;;;;;7.35;4.95;;;6.30;97.00;;;;;;5080284;28;20067;-68
2021/05/28 00:26:13;;;;;;;10.45;4.45;;;6.30;97.10;;;;;;5080849;28;20052;-68
2021/05/28 00:28:40;;;;;;;10.35;4.35;;;6.30;97.10;;;;;;5080998;28;20102;-68
2021/05/28 00:31:05;;;;;;;13.00;4.72;;;6.30;97.10;;;;;;5080354;28;20115;-68
2021/05/28 00:33:31;;;;;;;10.90;5.50;;;6.30;97.10;;;;;;5096496;27;20039;-68
2021/05/28 00:35:56;;;;;;;9.93;5.60;;;6.30;97.10;;;;;;5082459;28;20044;-68
2021/05/28 00:38:22;;;;;;;9.00;4.25;;;6.30;97.10;;;;;;5082744;28;20028;-68
2021/05/28 00:40:47;;;;;;;12.40;4.63;;;6.30;97.10;;;;;;5082278;28;20062;-68
2021/05/28 00:43:13;;;;;;;11.43;4.22;;;6.20;97.10;;;;;;5082610;28;20766;-68
2021/05/28 00:45:38;;;;;;;15.52;5.03;;;6.20;97.10;;;;;;5082506;28;20465;-68
2021/05/28 00:48:05;;;;;;;13.48;6.65;;;6.20;97.20;;;;;;5081215;28;20035;-68
2021/05/28 00:50:31;;;;;;;9.30;5.03;;;6.20;97.20;;;;;;5083955;28;20031;-68
2021/05/28 00:52:58;;;;;;;12.23;6.18;;;6.20;97.30;;;;;;5082842;28;20023;-68
2021/05/28 00:55:27;;;;;;;12.32;6.43;;;6.20;97.30;;;;;;5083649;28;20543;-68
2021/05/28 00:57:54;;;;;;;11.35;5.80;;;6.20;97.30;;;;;;5085857;28;20371;-68
2021/05/28 01:00:24;;;;;;;6.38;3.33;;;6.20;97.20;;;;;;5085119;28;20124;-68
2021/05/28 01:02:50;;;;;;;5.88;3.53;;;6.20;97.20;;;;;;5084082;28;20377;-68
2021/05/28 01:05:16;;;;;;;6.93;5.22;;;6.10;97.20;;;;;;5084471;28;20035;-68
2021/05/28 01:07:41;;;;;;;7.97;4.20;;;6.10;97.20;;;;;;5082021;28;21838;-68
2021/05/28 01:10:08;;;;;;;6.03;4.45;;;6.00;97.20;;;;;;5084978;28;20016;-68
2021/05/28 01:12:33;;;;;;;7.07;4.47;;;6.00;97.30;;;;;;5083161;28;20048;-68
2021/05/28 01:15:00;;;;;;;11.85;5.97;;;6.00;97.30;;;;;;5082210;28;20031;-68
2021/05/28 01:17:26;;;;;;;7.68;4.05;;;6.00;97.40;;;;;;5082138;28;20067;-68
2021/05/28 01:19:52;;;;;;;7.45;3.67;;;5.90;97.30;;;;;;5084616;28;20405;-68
2021/05/28 01:22:19;;;;;;;4.20;2.15;;;5.90;97.30;;;;;;5082576;28;20028;-68
2021/05/28 01:24:45;;;;;;;4.90;2.80;;;5.80;97.30;;;;;;5082717;28;20119;-68
2021/05/28 01:27:12;;;;;;;11.77;6.32;;;5.80;97.40;;;;;;5081494;28;20064;-68
2021/05/28 01:29:37;;;;;;;10.73;5.57;;;5.80;97.50;;;;;;5081914;28;20027;-68
2021/05/28 01:32:03;;;;;;;9.55;6.07;;;5.80;97.50;;;;;;5090589;28;20028;-68
2021/05/28 01:34:29;;;;;;;10.18;5.20;;;5.80;97.50;;;;;;5093966;28;20470;-68
2021/05/28 01:36:55;;;;;;;11.23;6.30;;;5.80;97.50;;;;;;5093653;28;20492;-68
2021/05/28 01:39:20;;;;;;;12.77;6.07;;;5.80;97.50;;;;;;5092107;28;20052;-68
2021/05/28 01:41:46;;;;;;;11.52;7.47;;;5.80;97.50;;;;;;5094006;28;20035;-68
2021/05/28 01:44:12;;;;;;;13.57;7.35;;;5.80;97.50;;;;;;5093964;28;20028;-68
2021/05/28 01:46:38;;;;;;;14.07;8.15;;;5.70;97.50;;;;;;5091901;28;20519;-68
2021/05/28 01:49:05;;;;;;;16.67;7.97;;;5.70;97.40;;;;;;5093498;28;20028;-68
2021/05/28 01:51:31;;;;;;;13.30;6.50;;;5.80;97.50;;;;;;5091292;28;20028;-68
2021/05/28 01:53:57;;;;;;;12.32;7.80;;;5.70;97.50;;;;;;5094100;28;20466;-68
2021/05/28 01:56:26;;;;;;;18.67;9.82;;;5.70;97.60;;;;;;5094835;28;20086;-68
2021/05/28 01:58:53;;;;;;;15.88;8.20;;;5.80;97.70;;;;;;5092647;28;20036;-68
2021/05/28 02:01:18;;;;;;;12.02;7.75;;;5.80;97.70;;;;;;5094046;28;20024;-68
2021/05/28 02:03:44;;;;;;;11.75;7.72;;;5.90;97.60;;;;;;5094237;28;20093;-68
2021/05/28 02:06:09;;;;;;;13.93;7.03;;;5.80;97.40;;;;;;5092794;28;20039;-68
2021/05/28 02:08:35;;;;;;;14.30;8.18;;;5.70;97.40;;;;;;5091460;28;20487;-68
2021/05/28 02:11:01;;;;;;;11.57;7.03;;;5.70;97.50;;;;;;5093846;28;20036;-68
2021/05/28 02:13:26;;;;;;;57.88;10.45;;;5.60;97.40;;;;;;5092633;28;20520;-68
2021/05/28 02:15:52;;;;;;;69.93;6.50;;;5.50;97.30;;;;;;5092773;28;20027;-68
2021/05/28 02:18:18;;;;;;;104.68;10.48;;;5.50;97.30;;;;;;5091735;28;20024;-68
2021/05/28 02:20:43;;;;;;;115.43;14.40;;;5.40;97.40;;;;;;5092790;28;20024;-68
2021/05/28 02:23:09;;;;;;;165.13;13.70;;;5.30;97.50;;;;;;5093254;28;20021;-68
2021/05/28 02:25:34;;;;;;;214.63;20.02;;;5.20;97.50;;;;;;5094278;28;20020;-68
2021/05/28 02:28:00;;;;;;;31.25;7.00;;;5.30;97.60;;;;;;5092981;28;20492;-68
2021/05/28 02:30:25;;;;;;;11.75;6.13;;;5.20;97.60;;;;;;5092850;28;20031;-68
2021/05/28 02:32:51;;;;;;;10.05;6.40;;;5.20;97.70;;;;;;5093243;28;20093;-68
2021/05/28 02:35:17;;;;;;;9.20;6.45;;;5.20;97.70;;;;;;5093097;28;20028;-68
2021/05/28 02:37:43;;;;;;;9.32;6.20;;;5.10;97.70;;;;;;5092780;28;20417;-68
2021/05/28 02:40:09;;;;;;;9.40;5.55;;;5.10;97.70;;;;;;5092177;28;20078;-68
2021/05/28 02:42:36;;;;;;;7.85;4.28;;;5.10;97.70;;;;;;5091061;28;20082;-68
2021/05/28 02:45:03;;;;;;;15.57;4.57;;;5.10;97.70;;;;;;5091599;28;20474;-68
2021/05/28 02:47:29;;;;;;;6.95;4.53;;;5.10;97.80;;;;;;5093042;28;20042;-68
2021/05/28 02:49:56;;;;;;;14.25;5.95;;;5.10;97.90;;;;;;5091887;28;20028;-68
2021/05/28 02:52:21;;;;;;;12.32;5.82;;;5.20;98.00;;;;;;5092229;28;20370;-68
2021/05/28 02:54:48;;;;;;;11.00;6.63;;;5.20;98.00;;;;;;5091457;28;20052;-68
2021/05/28 02:57:14;;;;;;;22.20;8.90;;;5.30;98.10;;;;;;5092575;28;20024;-68
2021/05/28 02:59:39;;;;;;;15.05;8.73;;;5.40;98.10;;;;;;5092535;28;20064;-68
2021/05/28 03:02:05;;;;;;;13.80;7.13;;;5.50;98.10;;;;;;5090473;28;20052;-68
2021/05/28 03:04:31;;;;;;;14.02;8.45;;;5.60;98.10;;;;;;5090840;28;20032;-68
2021/05/28 03:06:56;;;;;;;21.92;9.48;;;5.70;98.10;;;;;;5091753;28;20055;-68
2021/05/28 03:09:22;;;;;;;20.77;9.40;;;5.80;98.00;;;;;;5092340;28;20031;-68
2021/05/28 03:11:48;;;;;;;21.38;9.75;;;5.90;98.00;;;;;;5093055;28;20040;-68
2021/05/28 03:14:15;;;;;;;34.28;13.45;;;6.00;98.00;;;;;;5091027;28;20031;-68
2021/05/28 03:16:42;;;;;;;37.20;14.45;;;6.10;98.10;;;;;;5095261;28;20048;-68
2021/05/28 03:19:16;;;;;;;67.10;16.63;;;6.20;98.10;;;;;;5091712;28;20016;-68
2021/05/28 03:24:46;;;;;;;54.50;16.17;;;6.50;98.10;;;;;;5050416;28;20035;-68
2021/05/28 03:27:11;;;;;;;50.65;15.82;;;6.60;97.90;;;;;;5050142;28;20499;-68
2021/05/28 03:29:37;;;;;;;67.05;18.27;;;6.70;97.80;;;;;;5067810;28;20035;-68
2021/05/28 03:32:04;;;;;;;55.33;14.52;;;6.80;97.80;;;;;;5092093;28;20032;-68
2021/05/28 03:34:30;;;;;;;64.45;16.02;;;6.90;97.70;;;;;;5091118;28;20055;-68
2021/05/28 03:36:55;;;;;;;36.72;13.23;;;6.90;97.70;;;;;;5092554;28;20075;-68
2021/05/28 03:39:21;;;;;;;37.78;15.93;;;7.00;97.70;;;;;;5091317;28;20073;-68
2021/05/28 03:41:46;;;;;;;63.83;16.67;;;7.00;97.70;;;;;;5092064;28;20020;-68
2021/05/28 03:44:12;;;;;;;67.43;17.25;;;7.10;97.80;;;;;;5090045;28;20028;-68
2021/05/28 03:46:38;;;;;;;68.20;15.85;;;7.10;97.80;;;;;;5092869;28;20477;-68
2021/05/28 03:49:03;;;;;;;41.88;14.55;;;7.20;97.80;;;;;;5092976;28;20039;-68
2021/05/28 03:51:29;;;;;;;68.22;17.38;;;7.20;97.80;;;;;;5090721;28;20028;-68
2021/05/28 03:53:54;;;;;;;84.53;17.35;;;7.30;97.80;;;;;;5092210;28;20039;-68
2021/05/28 03:56:20;;;;;;;45.28;14.70;;;7.30;97.80;;;;;;5091451;28;20031;-68
2021/05/28 03:58:45;;;;;;;68.65;17.60;;;7.30;97.80;;;;;;5093007;28;20511;-68
2021/05/28 04:01:11;;;;;;;43.75;15.85;;;7.40;97.80;;;;;;5090452;28;20024;-68
2021/05/28 04:03:37;;;;;;;112.25;19.42;;;7.40;97.80;;;;;;5091749;28;20024;-68
2021/05/28 04:06:03;;;;;;;56.80;15.95;;;7.40;97.80;;;;;;5092314;28;20027;-68
2021/05/28 04:08:29;;;;;;;46.97;15.27;;;7.50;97.70;;;;;;5080750;28;20036;-68
2021/05/28 04:10:54;;;;;;;35.08;13.57;;;7.50;97.70;;;;;;5091803;28;20036;-68
2021/05/28 04:13:20;;;;;;;38.30;12.02;;;7.50;97.70;;;;;;5096025;28;20051;-68
2021/05/28 04:15:46;;;;;;;71.63;14.05;;;7.50;97.70;;;;;;5093918;28;20520;-68
2021/05/28 04:18:11;;;;;;;34.13;12.80;;;7.50;97.70;;;;;;5094234;28;20028;-68
2021/05/28 04:20:37;;;;;;;52.67;13.43;;;7.50;97.70;;;;;;5091633;28;20054;-68
2021/05/28 04:23:03;;;;;;;44.25;14.80;;;7.50;97.70;;;;;;5094320;28;20444;-68
2021/05/28 04:25:29;;;;;;;32.97;11.93;;;7.60;97.70;;;;;;5095774;28;20104;-68
2021/05/28 04:27:54;;;;;;;65.70;12.10;;;7.60;97.70;;;;;;5095242;28;20103;-67
2021/05/28 04:30:24;;;;;;;41.08;12.43;;;7.60;97.70;;;;;;5093918;28;20497;-67
2021/05/28 04:32:53;;;;;;;30.17;10.50;;;7.60;97.70;;;;;;5095385;28;20401;-67
2021/05/28 04:35:18;;;;;;;28.15;10.75;;;7.70;97.70;;;;;;5095573;28;20028;-67
2021/05/28 04:37:44;;;;;;;96.47;13.40;;;7.70;97.70;;;;;;5079254;28;20047;-67
2021/05/28 04:40:10;;;;;;;87.63;13.70;;;7.70;97.60;;;;;;5089263;28;20028;-67
2021/05/28 04:42:36;;;;;;;77.55;13.05;;;7.70;97.60;;;;;;5094559;28;20115;-67
2021/05/28 04:45:03;;;;;;;50.53;11.98;;;7.70;97.60;;;;;;5094176;28;20051;-67
2021/05/28 04:47:29;;;;;;;38.90;9.07;;;7.70;97.60;;;;;;5091276;28;20024;-68
2021/05/28 04:49:55;;;;;;;76.75;11.68;;;7.70;97.70;;;;;;5093810;28;20032;-67
2021/05/28 04:52:20;;;;;;;44.88;11.32;;;7.80;97.70;;;;;;5094530;28;20534;-67
2021/05/28 04:54:46;;;;;;;101.28;13.65;;;7.80;97.70;;;;;;5093400;28;20036;-68
2021/05/28 04:57:12;;;;;;;46.13;12.85;;;8.00;97.80;;;;;;5089909;28;20390;-67
2021/05/28 04:59:37;;;;;;;73.22;13.95;;;8.00;97.70;;;;;;5092916;28;20024;-67
2021/05/28 05:02:05;;;;;;;57.55;14.10;;;8.10;97.70;;;;;;5096040;28;20038;-67
2021/05/28 05:04:30;;;;;;;54.55;13.63;;;8.10;97.60;;;;;;5093555;28;20115;-67
2021/05/28 05:06:55;;;;;;;65.50;15.48;;;8.20;97.70;;;;;;5092507;28;20139;-68
2021/05/28 05:09:21;;;;;;;61.80;13.48;;;8.30;97.70;;;;;;5094897;28;20039;-68
2021/05/28 05:11:47;;;;;;;44.67;14.63;;;8.30;97.70;;;;;;5095490;28;20044;-68
2021/05/28 05:14:12;;;;;;;45.28;14.65;;;8.30;97.50;;;;;;5094708;28;20027;-68
2021/05/28 05:16:38;;;;;;;43.03;13.90;;;8.30;97.50;;;;;;5077178;28;20157;-68
2021/05/28 05:19:03;;;;;;;43.78;14.00;;;8.40;97.60;;;;;;5081822;28;20025;-68
2021/05/28 05:21:29;;;;;;;27.15;10.82;;;8.40;97.60;;;;;;5090050;28;20013;-68
2021/05/28 05:23:54;;;;;;;67.40;13.45;;;8.40;97.40;;;;;;5093558;28;20023;-68
2021/05/28 05:26:20;;;;;;;35.17;11.73;;;8.50;97.50;;;;;;5093725;28;20035;-68
2021/05/28 05:28:45;;;;;;;43.03;11.32;;;8.50;97.40;;;;;;5109871;28;20492;-68
2021/05/28 05:31:11;;;;;;;24.73;11.73;;;8.50;97.40;;;;;;5102842;28;20024;-68
2021/05/28 05:33:36;;;;;;;32.53;12.88;;;8.60;97.40;;;;;;5089431;28;20036;-68
2021/05/28 05:36:02;;;;;;;33.42;13.55;;;8.60;97.40;;;;;;5091677;28;20031;-68
2021/05/28 05:38:27;;;;;;;30.63;11.65;;;8.60;97.40;;;;;;5100227;28;20043;-68
2021/05/28 05:40:53;;;;;;;23.08;12.25;;;8.70;97.50;;;;;;5091843;28;20474;-68
2021/05/28 05:43:18;;;;;;;44.50;14.35;;;8.80;97.50;;;;;;5099242;28;20029;-68
2021/05/28 05:45:44;;;;;;;52.17;17.15;;;8.80;97.30;;;;;;5078215;28;20492;-68
2021/05/28 05:48:10;;;;;;;28.90;14.13;;;8.90;97.40;;;;;;5089423;28;20136;-68
2021/05/28 05:50:35;;;;;;;30.58;14.52;;;8.90;97.40;;;;;;5093309;28;20020;-68
2021/05/28 05:53:01;;;;;;;34.67;13.70;;;9.00;97.40;;;;;;5091806;28;20027;-68
2021/05/28 05:55:26;;;;;;;20.90;11.23;;;9.10;97.30;;;;;;5081048;28;20016;-68
2021/05/28 05:57:52;;;;;;;45.08;14.40;;;9.10;97.10;;;;;;5084059;28;20027;-68
2021/05/28 06:00:19;;;;;;;26.35;12.68;;;9.10;97.20;;;;;;5090802;28;20036;-68
2021/05/28 06:02:44;;;;;;;32.65;14.00;;;9.10;97.20;;;;;;5087221;28;20016;-68
2021/05/28 06:05:10;;;;;;;28.08;13.27;;;9.10;97.10;;;;;;5085170;28;20429;-68
2021/05/28 06:07:36;;;;;;;37.53;14.10;;;9.10;97.10;;;;;;5087106;28;20063;-69
2021/05/28 06:10:02;;;;;;;26.42;13.65;;;9.20;97.10;;;;;;5088498;28;20708;-68
2021/05/28 06:12:28;;;;;;;25.85;13.23;;;9.20;97.10;;;;;;5088542;28;20051;-68
2021/05/28 06:14:53;;;;;;;79.53;16.52;;;9.30;97.20;;;;;;5082079;28;20043;-69
2021/05/28 06:17:19;;;;;;;32.65;15.15;;;9.40;97.00;;;;;;5074191;28;20033;-69
2021/05/28 06:19:45;;;;;;;156.25;19.58;;;9.40;97.00;;;;;;5087281;28;20477;-69
2021/05/28 06:22:11;;;;;;;29.02;13.32;;;9.50;97.10;;;;;;5087850;28;20028;-69
2021/05/28 06:24:50;;;;;;;40.95;14.88;;;9.60;96.90;;;;;;5086215;28;20052;-68
2021/05/28 06:27:25;;;;;;;25.13;13.90;;;9.60;96.90;;;;;;5079903;28;20032;-69
2021/05/28 06:30:00;;;;;;;28.13;13.88;;;9.70;97.00;;;;;;5094212;28;20088;-68
2021/05/28 06:32:27;;;;;;;28.30;15.02;;;9.80;97.10;;;;;;5084316;28;20027;-69
2021/05/28 06:35:01;;;;;;;20.02;11.93;;;9.90;97.00;;;;;;5087901;28;20478;-69
2021/05/28 06:37:28;;;;;;;21.02;13.10;;;10.00;96.80;;;;;;5102334;28;20024;-70
2021/05/28 06:39:53;;;;;;;25.38;13.05;;;10.00;96.60;;;;;;5106998;28;20512;-69
2021/05/28 06:42:19;;;;;;;27.10;13.13;;;10.00;96.70;;;;;;5084811;28;20028;-69
2021/05/28 06:44:45;;;;;;;23.25;13.30;;;10.10;96.60;;;;;;5090942;28;20062;-68
2021/05/28 06:47:10;;;;;;;56.88;13.50;;;10.10;96.60;;;;;;5089103;28;20038;-68
2021/05/28 06:49:36;;;;;;;19.55;12.90;;;10.20;96.60;;;;;;5087689;28;20042;-69
2021/05/28 06:52:03;;;;;;;53.85;14.32;;;10.20;96.50;;;;;;5088750;28;20020;-69
2021/05/28 06:54:29;;;;;;;21.70;12.50;;;10.30;96.40;;;;;;5086235;28;20024;-70
2021/05/28 06:56:55;;;;;;;20.42;12.63;;;10.30;96.40;;;;;;5087205;28;20078;-70
2021/05/28 06:59:21;;;;;;;18.25;11.77;;;10.40;96.30;;;;;;5087600;28;20028;-70
2021/05/28 07:01:47;;;;;;;18.23;12.38;;;10.40;96.20;;;;;;5083979;28;20028;-68
2021/05/28 07:04:12;;;;;;;19.02;11.95;;;10.60;96.20;;;;;;5086553;28;20028;-68
2021/05/28 07:06:38;;;;;;;21.38;12.27;;;10.70;96.20;;;;;;5086136;28;20039;-68
2021/05/28 07:09:05;;;;;;;19.08;11.75;;;10.80;96.10;;;;;;5090188;28;20062;-68
2021/05/28 07:11:31;;;;;;;21.15;11.52;;;10.90;95.80;;;;;;5091613;28;20505;-68
2021/05/28 07:13:57;;;;;;;19.00;10.57;;;11.00;95.50;;;;;;5092972;28;20028;-69
2021/05/28 07:16:22;;;;;;;16.30;10.57;;;11.00;95.40;;;;;;5091436;28;20020;-69
2021/05/28 07:18:48;;;;;;;15.82;10.02;;;11.00;95.30;;;;;;5090309;28;20027;-69
2021/05/28 07:21:14;;;;;;;14.75;10.10;;;11.10;95.30;;;;;;5091395;28;20468;-68
2021/05/28 07:23:39;;;;;;;13.20;9.38;;;11.20;95.20;;;;;;5092640;28;20057;-68
2021/05/28 07:26:05;;;;;;;13.02;8.65;;;11.20;94.90;;;;;;5087294;28;20029;-69
2021/05/28 07:28:31;;;;;;;14.07;9.00;;;11.30;94.90;;;;;;5082686;28;20052;-69
2021/05/28 07:30:58;;;;;;;14.57;9.35;;;11.50;94.60;;;;;;5081299;28;20385;-68
2021/05/28 07:33:23;;;;;;;14.45;9.73;;;11.50;94.40;;;;;;5089983;28;20036;-68
2021/05/28 07:35:49;;;;;;;16.52;9.90;;;11.60;94.40;;;;;;5090335;28;20030;-68
2021/05/28 07:38:15;;;;;;;13.65;9.68;;;11.70;94.20;;;;;;5082451;28;20024;-69
2021/05/28 07:40:41;;;;;;;12.73;9.20;;;11.70;93.80;;;;;;5084964;28;20047;-69
2021/05/28 07:43:06;;;;;;;13.73;8.93;;;11.80;93.90;;;;;;5088644;28;20020;-69
2021/05/28 07:45:33;;;;;;;13.35;9.50;;;11.90;93.90;;;;;;5091610;28;20035;-69
2021/05/28 07:47:58;;;;;;;12.77;9.15;;;12.00;93.50;;;;;;5089253;28;20024;-68
2021/05/28 07:50:24;;;;;;;13.77;9.43;;;12.10;93.50;;;;;;5089660;28;20039;-69
2021/05/28 07:52:50;;;;;;;12.27;8.88;;;12.20;93.40;;;;;;5090167;28;20095;-69
2021/05/28 07:55:15;;;;;;;13.10;9.98;;;12.40;93.30;;;;;;5087793;28;20474;-69
2021/05/28 07:57:41;;;;;;;13.80;9.25;;;12.40;92.70;;;;;;5091655;28;20470;-69
2021/05/28 08:00:08;;;;;;;12.57;9.05;;;12.50;92.70;;;;;;5090402;28;20460;-70
2021/05/28 08:02:34;;;;;;;16.27;10.23;;;12.60;92.70;;;;;;5086650;28;20032;-69
2021/05/28 08:05:00;;;;;;;14.70;9.63;;;12.70;92.40;;;;;;5088070;28;20486;-69
2021/05/28 08:07:29;;;;;;;13.38;9.82;;;12.70;92.30;;;;;;5087326;28;20040;-69
2021/05/28 08:09:54;;;;;;;14.20;9.63;;;12.80;92.40;;;;;;5083206;28;20501;-69
2021/05/28 08:12:20;;;;;;;16.48;10.50;;;12.90;92.40;;;;;;5079687;28;20075;-69
2021/05/28 08:14:46;;;;;;;14.40;10.65;;;13.10;92.30;;;;;;5086205;28;20039;-69
2021/05/28 08:17:11;;;;;;;15.55;11.98;;;13.30;92.20;;;;;;5089416;28;20367;-68
2021/05/28 08:19:37;;;;;;;18.25;12.20;;;13.40;92.00;;;;;;5088271;28;20066;-68
2021/05/28 08:22:02;;;;;;;14.43;12.40;;;13.50;91.80;;;;;;5090150;28;20024;-69
2021/05/28 08:24:28;;;;;;;16.08;10.82;;;13.70;91.60;;;;;;5088350;28;20028;-70
2021/05/28 08:26:53;;;;;;;15.23;10.65;;;13.80;91.40;;;;;;5094122;28;20389;-70
2021/05/28 08:29:19;;;;;;;14.05;10.05;;;13.70;90.90;;;;;;5093685;28;20035;-69
2021/05/28 08:31:45;;;;;;;15.85;11.45;;;13.70;90.80;;;;;;5094212;28;20028;-69
2021/05/28 08:34:10;;;;;;;14.38;10.02;;;13.70;90.80;;;;;;5094289;28;20028;-69
2021/05/28 08:36:36;;;;;;;16.55;11.70;;;13.70;91.10;;;;;;5086084;28;20029;-69
2021/05/28 08:39:03;;;;;;;14.63;11.10;;;13.70;91.00;;;;;;5093184;28;20020;-69
2021/05/28 08:41:29;;;;;;;12.55;10.57;;;13.80;90.90;;;;;;5094464;28;20029;-69
2021/05/28 08:43:54;;;;;;;13.07;10.27;;;13.90;90.80;;;;;;5095321;28;20081;-69
2021/05/28 08:46:21;;;;;;;12.68;10.48;;;13.90;90.60;;;;;;5085495;28;20033;-67
2021/05/28 08:48:50;;;;;;;13.35;10.20;;;13.90;90.40;;;;;;5092471;28;20024;-67
2021/05/28 08:51:17;;;;;;;11.23;9.63;;;13.90;90.50;;;;;;5094843;28;20024;-67
2021/05/28 08:53:42;;;;;;;11.95;9.60;;;13.90;90.20;;;;;;5091703;28;20035;-67
2021/05/28 08:56:09;;;;;;;12.88;9.93;;;14.00;90.30;;;;;;5093333;28;20016;-67
2021/05/28 08:58:35;;;;;;;12.75;10.10;;;14.20;90.30;;;;;;5084607;28;20052;-67
2021/05/28 09:01:01;;;;;;;16.40;11.15;;;14.40;90.10;;;;;;5090603;28;20020;-67
2021/05/28 09:03:28;;;;;;;13.45;9.55;;;14.60;89.20;;;;;;5106910;28;20042;-67
2021/05/28 09:05:57;;;;;;;13.35;8.98;;;14.70;89.20;;;;;;5093563;28;20054;-67
2021/05/28 09:08:30;;;;;;;11.35;8.23;;;14.70;88.30;;;;;;5088054;28;20074;-67
2021/05/28 09:11:10;;;;;;;9.90;7.68;;;14.60;88.30;;;;;;5081204;28;20024;-67
2021/05/28 09:13:45;;;;;;;10.30;8.85;;;14.50;88.00;;;;;;5084585;28;20094;-67
2021/05/28 09:16:16;;;;;;;11.52;7.85;;;14.40;88.70;;;;;;5082875;28;20048;-68
2021/05/28 09:18:53;;;;;;;13.05;9.63;;;14.40;89.10;;;;;;5094387;28;20016;-68
2021/05/28 09:21:33;;;;;;;13.32;9.02;;;14.50;89.30;;;;;;5102759;28;20077;-69
2021/05/28 09:24:03;;;;;;;10.77;8.50;;;14.60;89.00;;;;;;5087738;28;20020;-68
2021/05/28 09:26:31;;;;;;;10.07;8.30;;;14.70;88.40;;;;;;5087755;28;20099;-68
2021/05/28 09:28:58;;;;;;;11.88;8.43;;;14.80;88.80;;;;;;5086807;28;20031;-69
2021/05/28 09:31:26;;;;;;;10.63;8.23;;;14.90;88.60;;;;;;5088781;28;20032;-68
2021/05/28 09:33:53;;;;;;;8.50;7.05;;;15.10;88.00;;;;;;5091016;28;20424;-69
2021/05/28 09:36:29;;;;;;;8.80;7.90;;;15.20;87.00;;;;;;5089346;28;20032;-68
2021/05/28 09:38:59;;;;;;;9.98;8.07;;;15.20;85.80;;;;;;5083379;28;20017;-67
2021/05/28 09:41:35;;;;;;;11.77;8.55;;;15.10;85.70;;;;;;5092340;28;20472;-69
2021/05/28 09:44:17;;;;;;;10.05;7.28;;;15.10;85.70;;;;;;5093662;28;20031;-69
2021/05/28 09:47:02;;;;;;;11.02;8.45;;;15.20;86.10;;;;;;5094472;28;20024;-69
2021/05/28 09:49:32;;;;;;;7.95;6.50;;;15.30;86.40;;;;;;5086244;28;20024;-68
2021/05/28 09:52:10;;;;;;;9.35;7.03;;;15.40;85.60;;;;;;5092468;28;20024;-69
2021/05/28 09:54:37;;;;;;;10.32;7.13;;;15.60;86.30;;;;;;5088378;28;20033;-68
2021/05/28 09:57:03;;;;;;;9.23;6.95;;;15.90;85.80;;;;;;5090341;28;20026;-69
2021/05/28 09:59:46;;;;;;;10.30;7.68;;;15.90;85.20;;;;;;5089781;28;20382;-68
2021/05/28 10:02:30;;;;;;;8.85;7.82;;;16.10;84.90;;;;;;5089635;28;20470;-69
2021/05/28 10:04:58;;;;;;;9.05;6.53;;;16.30;84.80;;;;;;5092722;28;20135;-69
2021/05/28 10:07:25;;;;;;;9.52;7.13;;;16.30;84.10;;;;;;5109096;28;20043;-69
2021/05/28 10:09:53;;;;;;;7.90;6.38;;;16.30;83.20;;;;;;5088848;28;20114;-69
2021/05/28 10:12:20;;;;;;;9.25;6.25;;;16.20;83.00;;;;;;5085923;28;20044;-68
2021/05/28 10:14:46;;;;;;;8.77;7.05;;;16.30;83.10;;;;;;5092437;28;20043;-68
2021/05/28 10:17:12;;;;;;;11.95;7.18;;;16.40;82.90;;;;;;5091430;28;20023;-68
2021/05/28 10:19:40;;;;;;;8.00;6.18;;;16.60;82.60;;;;;;5092033;28;20024;-68
2021/05/28 10:22:06;;;;;;;7.22;5.72;;;16.70;82.20;;;;;;5091356;28;20020;-68
2021/05/28 10:24:32;;;;;;;6.90;5.43;;;16.80;81.90;;;;;;5093015;28;20091;-68
2021/05/28 10:26:57;;;;;;;8.95;5.95;;;17.00;82.00;;;;;;5091471;28;20075;-68
2021/05/28 10:29:24;;;;;;;6.50;5.15;;;17.10;81.30;;;;;;5093039;28;20031;-69
2021/05/28 10:31:55;;;;;;;9.02;5.90;;;17.20;80.50;;;;;;5090823;28;20577;-68
2021/05/28 10:34:25;;;;;;;7.38;5.43;;;17.10;78.40;;;;;;5087337;28;20089;-68
2021/05/28 10:36:52;;;;;;;4.85;4.38;;;17.00;78.60;;;;;;5092416;28;20035;-68
2021/05/28 10:39:18;;;;;;;8.40;5.32;;;16.90;79.10;;;;;;5089336;28;20033;-68
2021/05/28 10:41:53;;;;;;;5.70;4.90;;;16.90;78.70;;;;;;5090530;28;20051;-68
2021/05/28 10:44:22;;;;;;;7.75;6.57;;;16.90;79.20;;;;;;5089663;28;20030;-68
2021/05/28 10:46:54;;;;;;;7.97;6.30;;;16.90;77.70;;;;;;5087376;28;20359;-71
2021/05/28 10:49:35;;;;;;;8.98;5.25;;;16.80;77.00;;;;;;5086060;28;20030;-68
2021/05/28 10:52:03;;;;;;;10.27;7.28;;;16.70;77.50;;;;;;5086325;28;20482;-68
2021/05/28 10:54:31;;;;;;;10.88;7.85;;;16.60;77.20;;;;;;5097331;28;20099;-68
2021/05/28 10:57:17;;;;;;;8.52;7.38;;;16.70;76.80;;;;;;5086993;28;20059;-68
2021/05/28 10:59:47;;;;;;;9.10;6.95;;;16.80;77.00;;;;;;5095561;28;20017;-68
2021/05/28 11:02:13;;;;;;;9.52;8.02;;;16.80;76.00;;;;;;5092739;28;20363;-68
2021/05/28 11:04:39;;;;;;;9.80;7.47;;;16.80;75.20;;;;;;5092258;28;20024;-68
2021/05/28 11:07:07;;;;;;;11.98;8.98;;;16.90;75.50;;;;;;5093260;28;20024;-68
2021/05/28 11:09:50;;;;;;;8.45;7.28;;;17.00;74.60;;;;;;5093323;28;20038;-68
2021/05/28 11:12:24;;;;;;;10.50;7.55;;;17.10;74.80;;;;;;5092489;28;20043;-68
2021/05/28 11:15:12;;;;;;;9.90;8.40;;;17.20;74.80;;;;;;5091138;28;20055;-68
2021/05/28 11:18:00;;;;;;;10.30;7.85;;;17.40;73.90;;;;;;5092117;28;20031;-68
2021/05/28 11:20:37;;;;;;;10.18;8.35;;;17.30;73.30;;;;;;5091130;28;20060;-68
2021/05/28 11:23:22;;;;;;;9.57;7.47;;;17.10;73.80;;;;;;5090238;28;20028;-68
2021/05/28 11:25:53;;;;;;;8.52;7.15;;;17.10;74.00;;;;;;5092975;28;20521;-68
2021/05/28 11:28:19;;;;;;;6.78;5.88;;;17.00;73.90;;;;;;5093480;28;20020;-68
2021/05/28 11:30:54;;;;;;;9.32;6.63;;;16.90;73.50;;;;;;5092207;28;20112;-68
2021/05/28 11:33:40;;;;;;;8.13;6.55;;;16.80;72.90;;;;;;5091971;28;20034;-68
2021/05/28 11:36:38;;;;;;;7.13;6.22;;;16.90;73.80;;;;;;5090082;28;20478;-68
2021/05/28 11:39:23;;;;;;;10.15;6.55;;;17.10;73.30;;;;;;5091840;28;20153;-68
2021/05/28 11:41:51;;;;;;;8.80;6.45;;;17.30;72.00;;;;;;5089852;28;20569;-69
2021/05/28 11:44:20;;;;;;;7.55;6.75;;;17.50;70.90;;;;;;5090092;28;20043;-68
2021/05/28 11:46:49;;;;;;;8.85;5.88;;;17.50;69.70;;;;;;5082392;28;20381;-68
2021/05/28 11:49:16;;;;;;;6.70;5.10;;;17.60;69.60;;;;;;5102795;28;20081;-68
2021/05/28 11:51:43;;;;;;;8.00;5.63;;;17.60;69.90;;;;;;5079599;28;20130;-68
2021/05/28 11:54:30;;;;;;;7.38;5.93;;;17.70;68.30;;;;;;5084215;28;20052;-68
2021/05/28 11:56:59;;;;;;;6.43;5.18;;;17.70;68.90;;;;;;5082762;28;20459;-68
2021/05/28 11:59:50;;;;;;;6.80;5.22;;;17.90;68.90;;;;;;5087752;28;20480;-68
2021/05/28 12:02:41;;;;;;;8.95;5.18;;;18.00;68.40;;;;;;5092252;28;20021;-68
2021/05/28 12:05:23;;;;;;;7.30;5.35;;;17.90;67.50;;;;;;5091193;28;20047;-68
2021/05/28 12:07:50;;;;;;;8.07;6.35;;;17.90;68.40;;;;;;5081472;28;20077;-68
2021/05/28 12:10:16;;;;;;;8.60;6.53;;;18.00;69.30;;;;;;5087410;28;20432;-68
2021/05/28 12:13:13;;;;;;;9.70;7.32;;;18.30;69.40;;;;;;5089934;28;20056;-68
2021/05/28 12:15:56;;;;;;;8.15;6.05;;;18.70;69.40;;;;;;5088960;28;20028;-69
2021/05/28 12:18:43;;;;;;;7.60;5.50;;;19.00;69.30;;;;;;5090848;28;20439;-69
2021/05/28 12:21:13;;;;;;;5.85;4.07;;;19.30;67.50;;;;;;5092749;28;20023;-67
2021/05/28 12:23:41;;;;;;;7.28;4.45;;;19.40;67.10;;;;;;5092183;28;20414;-67
2021/05/28 12:26:08;;;;;;;5.65;3.55;;;19.50;66.40;;;;;;5084631;28;20020;-67
2021/05/28 12:28:36;;;;;;;4.70;2.42;;;19.60;65.10;;;;;;5090530;28;20045;-67
2021/05/28 12:31:12;;;;;;;4.03;2.22;;;19.50;63.60;;;;;;5093790;28;20024;-67
2021/05/28 12:33:58;;;;;;;2.85;1.50;;;19.40;63.60;;;;;;5093669;28;20081;-68
2021/05/28 12:36:36;;;;;;;3.35;1.73;;;19.40;63.00;;;;;;5094232;28;20058;-67
2021/05/28 12:39:08;;;;;;;3.58;1.02;;;19.30;61.70;;;;;;5093267;28;20016;-67
2021/05/28 12:41:35;;;;;;;1.90;0.90;;;19.30;60.10;;;;;;5093302;28;20084;-67
2021/05/28 12:44:02;;;;;;;2.17;0.98;;;19.20;60.20;;;;;;5092596;28;20071;-68
2021/05/28 12:46:32;;;;;;;2.92;1.10;;;19.20;59.60;;;;;;5090287;28;20024;-69
2021/05/28 12:49:05;;;;;;;1.60;0.65;;;19.00;59.80;;;;;;5092085;28;20157;-68